sensor_id;sensor_type;location;lat;lon;timestamp;P1;durP1;ratioP1;P2;durP2;ratioP2
20844;SDS011;10583;49.084;8.646;2023-04-15T00:02:14;3.60;;;3.60;;
20844;SDS011;10583;49.084;8.646;2023-04-15T00:04:42;3.50;;;3.50;;
20844;SDS011;10583;49.084;8.646;2023-04-15T00:07:09;3.20;;;3.20;;
20844;SDS011;10583;49.084;8.646;2023-04-15T00:09:37;3.03;;;3.03;;
20844;SDS011;10583;49.084;8.646;2023-04-15T00:12:04;3.30;;;3.30;;
20844;SDS011;10583;49.084;8.646;2023-04-15T00:14:32;3.50;;;3.50;;
20844;SDS011;10583;49.084;8.646;2023-04-15T00:16:59;3.20;;;3.20;;
20844;SDS011;10583;49.084;8.646;2023-04-15T00:19:26;3.10;;;3.10;;
20844;SDS011;10583;49.084;8.646;2023-04-15T00:21:53;2.80;;;2.80;;
20844;SDS011;10583;49.084;8.646;2023-04-15T00:24:20;3.40;;;3.40;;
20844;SDS011;10583;49.084;8.646;2023-04-15T00:26:48;2.90;;;2.90;;
20844;SDS011;10583;49.084;8.646;2023-04-15T00:29:15;3.20;;;3.20;;
20844;SDS011;10583;49.084;8.646;2023-04-15T00:31:42;3.17;;;3.17;;
20844;SDS011;10583;49.084;8.646;2023-04-15T00:34:08;3.40;;;3.40;;
20844;SDS011;10583;49.084;8.646;2023-04-15T00:36:35;3.00;;;3.00;;
20844;SDS011;10583;49.084;8.646;2023-04-15T00:39:02;3.10;;;3.10;;
20844;SDS011;10583;49.084;8.646;2023-04-15T00:41:29;2.90;;;2.90;;
20844;SDS011;10583;49.084;8.646;2023-04-15T00:43:59;2.37;;;2.37;;
20844;SDS011;10583;49.084;8.646;2023-04-15T00:46:27;3.00;;;3.00;;
20844;SDS011;10583;49.084;8.646;2023-04-15T00:48:56;3.00;;;3.00;;
20844;SDS011;10583;49.084;8.646;2023-04-15T00:51:22;2.73;;;2.73;;
20844;SDS011;10583;49.084;8.646;2023-04-15T00:53:49;3.20;;;3.20;;
20844;SDS011;10583;49.084;8.646;2023-04-15T00:56:17;3.17;;;3.17;;
20844;SDS011;10583;49.084;8.646;2023-04-15T00:58:48;3.43;;;3.43;;
20844;SDS011;10583;49.084;8.646;2023-04-15T01:01:17;3.03;;;3.03;;
20844;SDS011;10583;49.084;8.646;2023-04-15T01:03:47;3.40;;;3.40;;
20844;SDS011;10583;49.084;8.646;2023-04-15T01:06:15;2.57;;;2.57;;
20844;SDS011;10583;49.084;8.646;2023-04-15T01:08:42;2.83;;;2.83;;
20844;SDS011;10583;49.084;8.646;2023-04-15T01:11:09;3.40;;;3.40;;
20844;SDS011;10583;49.084;8.646;2023-04-15T01:13:38;2.50;;;2.50;;
20844;SDS011;10583;49.084;8.646;2023-04-15T01:16:05;2.80;;;2.80;;
20844;SDS011;10583;49.084;8.646;2023-04-15T01:18:34;2.70;;;2.70;;
20844;SDS011;10583;49.084;8.646;2023-04-15T01:21:02;2.70;;;2.70;;
20844;SDS011;10583;49.084;8.646;2023-04-15T01:23:31;2.77;;;2.77;;
20844;SDS011;10583;49.084;8.646;2023-04-15T01:26:02;3.30;;;3.30;;
20844;SDS011;10583;49.084;8.646;2023-04-15T01:28:29;2.83;;;2.83;;
20844;SDS011;10583;49.084;8.646;2023-04-15T01:31:06;3.40;;;3.40;;
20844;SDS011;10583;49.084;8.646;2023-04-15T01:33:33;3.43;;;3.43;;
20844;SDS011;10583;49.084;8.646;2023-04-15T01:36:00;3.27;;;3.27;;
20844;SDS011;10583;49.084;8.646;2023-04-15T01:38:27;3.50;;;3.50;;
20844;SDS011;10583;49.084;8.646;2023-04-15T01:40:55;3.50;;;3.50;;
20844;SDS011;10583;49.084;8.646;2023-04-15T01:43:23;3.00;;;3.00;;
20844;SDS011;10583;49.084;8.646;2023-04-15T01:45:50;4.00;;;4.00;;
20844;SDS011;10583;49.084;8.646;2023-04-15T01:48:17;3.50;;;3.50;;
20844;SDS011;10583;49.084;8.646;2023-04-15T01:50:44;3.70;;;3.70;;
20844;SDS011;10583;49.084;8.646;2023-04-15T01:53:11;3.87;;;3.87;;
20844;SDS011;10583;49.084;8.646;2023-04-15T01:55:37;3.70;;;3.70;;
20844;SDS011;10583;49.084;8.646;2023-04-15T01:58:05;3.97;;;3.97;;
20844;SDS011;10583;49.084;8.646;2023-04-15T02:00:33;4.13;;;4.13;;
20844;SDS011;10583;49.084;8.646;2023-04-15T02:02:59;3.50;;;3.50;;
20844;SDS011;10583;49.084;8.646;2023-04-15T02:05:26;3.60;;;3.60;;
20844;SDS011;10583;49.084;8.646;2023-04-15T02:07:53;3.80;;;3.80;;
20844;SDS011;10583;49.084;8.646;2023-04-15T02:10:19;3.90;;;3.90;;
20844;SDS011;10583;49.084;8.646;2023-04-15T02:12:46;3.53;;;3.53;;
20844;SDS011;10583;49.084;8.646;2023-04-15T02:15:13;3.67;;;3.67;;
20844;SDS011;10583;49.084;8.646;2023-04-15T02:17:41;3.70;;;3.70;;
20844;SDS011;10583;49.084;8.646;2023-04-15T02:20:10;3.77;;;3.77;;
20844;SDS011;10583;49.084;8.646;2023-04-15T02:22:37;3.73;;;3.73;;
20844;SDS011;10583;49.084;8.646;2023-04-15T02:25:04;3.50;;;3.50;;
20844;SDS011;10583;49.084;8.646;2023-04-15T02:27:32;3.47;;;3.47;;
20844;SDS011;10583;49.084;8.646;2023-04-15T02:29:58;3.80;;;3.80;;
20844;SDS011;10583;49.084;8.646;2023-04-15T02:32:25;3.70;;;3.70;;
20844;SDS011;10583;49.084;8.646;2023-04-15T02:34:54;3.87;;;3.87;;
20844;SDS011;10583;49.084;8.646;2023-04-15T02:37:21;3.00;;;3.00;;
20844;SDS011;10583;49.084;8.646;2023-04-15T02:39:51;3.07;;;3.07;;
20844;SDS011;10583;49.084;8.646;2023-04-15T02:42:17;3.00;;;3.00;;
20844;SDS011;10583;49.084;8.646;2023-04-15T02:44:45;3.00;;;3.00;;
20844;SDS011;10583;49.084;8.646;2023-04-15T02:47:12;3.40;;;3.40;;
20844;SDS011;10583;49.084;8.646;2023-04-15T02:49:40;2.90;;;2.90;;
20844;SDS011;10583;49.084;8.646;2023-04-15T02:52:07;3.33;;;3.33;;
20844;SDS011;10583;49.084;8.646;2023-04-15T02:54:34;3.30;;;3.30;;
20844;SDS011;10583;49.084;8.646;2023-04-15T02:57:01;3.50;;;3.50;;
20844;SDS011;10583;49.084;8.646;2023-04-15T02:59:30;3.43;;;3.43;;
20844;SDS011;10583;49.084;8.646;2023-04-15T03:01:57;3.40;;;3.40;;
20844;SDS011;10583;49.084;8.646;2023-04-15T03:04:24;3.07;;;3.07;;
20844;SDS011;10583;49.084;8.646;2023-04-15T03:06:54;3.20;;;3.20;;
20844;SDS011;10583;49.084;8.646;2023-04-15T03:09:22;3.03;;;3.03;;
20844;SDS011;10583;49.084;8.646;2023-04-15T03:11:48;3.03;;;3.03;;
20844;SDS011;10583;49.084;8.646;2023-04-15T03:14:17;3.10;;;3.10;;
20844;SDS011;10583;49.084;8.646;2023-04-15T03:16:44;3.27;;;3.27;;
20844;SDS011;10583;49.084;8.646;2023-04-15T03:19:12;3.50;;;3.50;;
20844;SDS011;10583;49.084;8.646;2023-04-15T03:21:38;3.27;;;3.27;;
20844;SDS011;10583;49.084;8.646;2023-04-15T03:24:05;2.73;;;2.73;;
20844;SDS011;10583;49.084;8.646;2023-04-15T03:26:33;2.83;;;2.83;;
20844;SDS011;10583;49.084;8.646;2023-04-15T03:29:00;2.80;;;2.80;;
20844;SDS011;10583;49.084;8.646;2023-04-15T03:31:27;4.03;;;4.03;;
20844;SDS011;10583;49.084;8.646;2023-04-15T03:33:54;2.93;;;2.93;;
20844;SDS011;10583;49.084;8.646;2023-04-15T03:36:21;3.50;;;3.50;;
20844;SDS011;10583;49.084;8.646;2023-04-15T03:38:47;3.20;;;3.20;;
20844;SDS011;10583;49.084;8.646;2023-04-15T03:41:14;4.07;;;4.07;;
20844;SDS011;10583;49.084;8.646;2023-04-15T03:43:42;3.97;;;3.97;;
20844;SDS011;10583;49.084;8.646;2023-04-15T03:46:09;3.80;;;3.80;;
20844;SDS011;10583;49.084;8.646;2023-04-15T03:48:36;3.77;;;3.77;;
20844;SDS011;10583;49.084;8.646;2023-04-15T03:51:03;3.57;;;3.57;;
20844;SDS011;10583;49.084;8.646;2023-04-15T03:53:30;3.97;;;3.97;;
20844;SDS011;10583;49.084;8.646;2023-04-15T03:55:57;3.57;;;3.57;;
20844;SDS011;10583;49.084;8.646;2023-04-15T03:58:24;3.50;;;3.50;;
20844;SDS011;10583;49.084;8.646;2023-04-15T04:00:52;3.50;;;3.50;;
20844;SDS011;10583;49.084;8.646;2023-04-15T04:03:19;3.73;;;3.73;;
20844;SDS011;10583;49.084;8.646;2023-04-15T04:05:45;3.57;;;3.57;;
20844;SDS011;10583;49.084;8.646;2023-04-15T04:08:12;3.50;;;3.50;;
20844;SDS011;10583;49.084;8.646;2023-04-15T04:10:40;3.40;;;3.40;;
20844;SDS011;10583;49.084;8.646;2023-04-15T04:13:07;3.47;;;3.47;;
20844;SDS011;10583;49.084;8.646;2023-04-15T04:15:34;3.27;;;3.27;;
20844;SDS011;10583;49.084;8.646;2023-04-15T04:18:02;3.40;;;3.40;;
20844;SDS011;10583;49.084;8.646;2023-04-15T04:20:29;3.50;;;3.50;;
20844;SDS011;10583;49.084;8.646;2023-04-15T04:22:56;3.80;;;3.80;;
20844;SDS011;10583;49.084;8.646;2023-04-15T04:25:23;3.50;;;3.50;;
20844;SDS011;10583;49.084;8.646;2023-04-15T04:27:50;3.43;;;3.43;;
20844;SDS011;10583;49.084;8.646;2023-04-15T04:30:17;3.50;;;3.50;;
20844;SDS011;10583;49.084;8.646;2023-04-15T04:32:43;3.50;;;3.50;;
20844;SDS011;10583;49.084;8.646;2023-04-15T04:35:11;3.70;;;3.70;;
20844;SDS011;10583;49.084;8.646;2023-04-15T04:37:38;3.20;;;3.20;;
20844;SDS011;10583;49.084;8.646;2023-04-15T04:40:06;3.47;;;3.47;;
20844;SDS011;10583;49.084;8.646;2023-04-15T04:42:33;3.70;;;3.70;;
20844;SDS011;10583;49.084;8.646;2023-04-15T04:45:00;3.27;;;3.27;;
20844;SDS011;10583;49.084;8.646;2023-04-15T04:47:27;3.60;;;3.60;;
20844;SDS011;10583;49.084;8.646;2023-04-15T04:49:54;3.30;;;3.30;;
20844;SDS011;10583;49.084;8.646;2023-04-15T04:52:22;3.23;;;3.23;;
20844;SDS011;10583;49.084;8.646;2023-04-15T04:54:48;2.93;;;2.93;;
20844;SDS011;10583;49.084;8.646;2023-04-15T04:57:15;3.20;;;3.20;;
20844;SDS011;10583;49.084;8.646;2023-04-15T04:59:42;3.17;;;3.17;;
20844;SDS011;10583;49.084;8.646;2023-04-15T05:02:09;3.23;;;3.23;;
20844;SDS011;10583;49.084;8.646;2023-04-15T05:04:36;3.13;;;3.13;;
20844;SDS011;10583;49.084;8.646;2023-04-15T05:07:02;3.10;;;3.10;;
20844;SDS011;10583;49.084;8.646;2023-04-15T05:09:30;3.40;;;3.40;;
20844;SDS011;10583;49.084;8.646;2023-04-15T05:12:00;4.17;;;4.17;;
20844;SDS011;10583;49.084;8.646;2023-04-15T05:14:27;3.50;;;3.50;;
20844;SDS011;10583;49.084;8.646;2023-04-15T05:16:53;3.33;;;3.33;;
20844;SDS011;10583;49.084;8.646;2023-04-15T05:19:20;3.33;;;3.33;;
20844;SDS011;10583;49.084;8.646;2023-04-15T05:21:47;4.43;;;4.43;;
20844;SDS011;10583;49.084;8.646;2023-04-15T05:24:14;4.43;;;4.43;;
20844;SDS011;10583;49.084;8.646;2023-04-15T05:26:42;4.30;;;4.30;;
20844;SDS011;10583;49.084;8.646;2023-04-15T05:29:09;4.07;;;4.07;;
20844;SDS011;10583;49.084;8.646;2023-04-15T05:31:35;3.77;;;3.77;;
20844;SDS011;10583;49.084;8.646;2023-04-15T05:34:02;3.50;;;3.50;;
20844;SDS011;10583;49.084;8.646;2023-04-15T05:36:31;3.67;;;3.67;;
20844;SDS011;10583;49.084;8.646;2023-04-15T05:38:57;3.70;;;3.70;;
20844;SDS011;10583;49.084;8.646;2023-04-15T05:41:24;3.73;;;3.73;;
20844;SDS011;10583;49.084;8.646;2023-04-15T05:43:52;3.30;;;3.30;;
20844;SDS011;10583;49.084;8.646;2023-04-15T05:46:19;3.40;;;3.40;;
20844;SDS011;10583;49.084;8.646;2023-04-15T05:48:46;3.73;;;3.73;;
20844;SDS011;10583;49.084;8.646;2023-04-15T05:51:13;3.73;;;3.73;;
20844;SDS011;10583;49.084;8.646;2023-04-15T05:53:40;3.43;;;3.43;;
20844;SDS011;10583;49.084;8.646;2023-04-15T05:56:06;3.33;;;3.33;;
20844;SDS011;10583;49.084;8.646;2023-04-15T05:58:33;3.30;;;3.30;;
20844;SDS011;10583;49.084;8.646;2023-04-15T06:01:01;3.40;;;3.40;;
20844;SDS011;10583;49.084;8.646;2023-04-15T06:03:29;3.53;;;3.53;;
20844;SDS011;10583;49.084;8.646;2023-04-15T06:05:55;4.03;;;4.03;;
20844;SDS011;10583;49.084;8.646;2023-04-15T06:08:22;3.53;;;3.53;;
20844;SDS011;10583;49.084;8.646;2023-04-15T06:10:49;3.93;;;3.93;;
20844;SDS011;10583;49.084;8.646;2023-04-15T06:13:16;3.87;;;3.87;;
20844;SDS011;10583;49.084;8.646;2023-04-15T06:15:43;4.23;;;4.23;;
20844;SDS011;10583;49.084;8.646;2023-04-15T06:18:11;4.40;;;4.40;;
20844;SDS011;10583;49.084;8.646;2023-04-15T06:20:38;4.47;;;4.47;;
20844;SDS011;10583;49.084;8.646;2023-04-15T06:23:05;4.80;;;4.80;;
20844;SDS011;10583;49.084;8.646;2023-04-15T06:25:32;4.60;;;4.60;;
20844;SDS011;10583;49.084;8.646;2023-04-15T06:27:59;5.00;;;5.00;;
20844;SDS011;10583;49.084;8.646;2023-04-15T06:30:25;5.20;;;5.20;;
20844;SDS011;10583;49.084;8.646;2023-04-15T06:32:52;6.40;;;6.40;;
20844;SDS011;10583;49.084;8.646;2023-04-15T06:35:21;5.43;;;5.43;;
20844;SDS011;10583;49.084;8.646;2023-04-15T06:37:48;4.80;;;4.80;;
20844;SDS011;10583;49.084;8.646;2023-04-15T06:40:15;4.40;;;4.40;;
20844;SDS011;10583;49.084;8.646;2023-04-15T06:42:42;4.03;;;4.03;;
20844;SDS011;10583;49.084;8.646;2023-04-15T06:45:09;3.77;;;3.77;;
20844;SDS011;10583;49.084;8.646;2023-04-15T06:47:37;3.93;;;3.93;;
20844;SDS011;10583;49.084;8.646;2023-04-15T06:50:04;4.20;;;4.20;;
20844;SDS011;10583;49.084;8.646;2023-04-15T06:52:32;3.80;;;3.80;;
20844;SDS011;10583;49.084;8.646;2023-04-15T06:54:59;4.30;;;4.30;;
20844;SDS011;10583;49.084;8.646;2023-04-15T06:57:26;3.90;;;3.90;;
20844;SDS011;10583;49.084;8.646;2023-04-15T06:59:53;3.97;;;3.97;;
20844;SDS011;10583;49.084;8.646;2023-04-15T07:02:20;4.00;;;4.00;;
20844;SDS011;10583;49.084;8.646;2023-04-15T07:04:47;3.87;;;3.87;;
20844;SDS011;10583;49.084;8.646;2023-04-15T07:07:20;4.03;;;4.03;;
20844;SDS011;10583;49.084;8.646;2023-04-15T07:09:48;3.67;;;3.67;;
20844;SDS011;10583;49.084;8.646;2023-04-15T07:12:17;3.80;;;3.80;;
20844;SDS011;10583;49.084;8.646;2023-04-15T07:14:44;3.70;;;3.70;;
20844;SDS011;10583;49.084;8.646;2023-04-15T07:17:11;3.53;;;3.53;;
20844;SDS011;10583;49.084;8.646;2023-04-15T07:19:38;3.47;;;3.47;;
20844;SDS011;10583;49.084;8.646;2023-04-15T07:22:05;4.37;;;4.37;;
20844;SDS011;10583;49.084;8.646;2023-04-15T07:24:32;4.00;;;4.00;;
20844;SDS011;10583;49.084;8.646;2023-04-15T07:27:00;3.17;;;3.17;;
20844;SDS011;10583;49.084;8.646;2023-04-15T07:29:28;3.37;;;3.37;;
20844;SDS011;10583;49.084;8.646;2023-04-15T07:31:55;3.83;;;3.83;;
20844;SDS011;10583;49.084;8.646;2023-04-15T07:34:22;3.87;;;3.87;;
20844;SDS011;10583;49.084;8.646;2023-04-15T07:36:48;3.00;;;3.00;;
20844;SDS011;10583;49.084;8.646;2023-04-15T07:39:16;3.50;;;3.50;;
20844;SDS011;10583;49.084;8.646;2023-04-15T07:41:43;3.53;;;3.53;;
20844;SDS011;10583;49.084;8.646;2023-04-15T07:44:12;3.17;;;3.17;;
20844;SDS011;10583;49.084;8.646;2023-04-15T07:46:38;3.10;;;3.10;;
20844;SDS011;10583;49.084;8.646;2023-04-15T07:49:05;3.80;;;3.80;;
20844;SDS011;10583;49.084;8.646;2023-04-15T07:51:32;3.23;;;3.23;;
20844;SDS011;10583;49.084;8.646;2023-04-15T07:53:59;3.10;;;3.10;;
20844;SDS011;10583;49.084;8.646;2023-04-15T07:56:25;3.03;;;3.03;;
20844;SDS011;10583;49.084;8.646;2023-04-15T07:58:59;3.73;;;3.73;;
20844;SDS011;10583;49.084;8.646;2023-04-15T08:01:29;3.50;;;3.50;;
20844;SDS011;10583;49.084;8.646;2023-04-15T08:03:56;4.37;;;4.37;;
20844;SDS011;10583;49.084;8.646;2023-04-15T08:06:24;3.33;;;3.33;;
20844;SDS011;10583;49.084;8.646;2023-04-15T08:08:51;4.00;;;4.00;;
20844;SDS011;10583;49.084;8.646;2023-04-15T08:11:18;4.80;;;4.80;;
20844;SDS011;10583;49.084;8.646;2023-04-15T08:13:45;4.00;;;4.00;;
20844;SDS011;10583;49.084;8.646;2023-04-15T08:16:14;4.17;;;4.17;;
20844;SDS011;10583;49.084;8.646;2023-04-15T08:18:45;4.20;;;4.20;;
20844;SDS011;10583;49.084;8.646;2023-04-15T08:21:12;4.43;;;4.43;;
20844;SDS011;10583;49.084;8.646;2023-04-15T08:23:38;5.70;;;5.70;;
20844;SDS011;10583;49.084;8.646;2023-04-15T08:26:06;5.10;;;5.10;;
20844;SDS011;10583;49.084;8.646;2023-04-15T08:28:33;4.47;;;4.47;;
20844;SDS011;10583;49.084;8.646;2023-04-15T08:31:01;5.70;;;5.60;;
20844;SDS011;10583;49.084;8.646;2023-04-15T08:33:27;4.97;;;4.97;;
20844;SDS011;10583;49.084;8.646;2023-04-15T08:35:59;4.40;;;4.40;;
20844;SDS011;10583;49.084;8.646;2023-04-15T08:38:26;4.77;;;4.77;;
20844;SDS011;10583;49.084;8.646;2023-04-15T08:40:52;4.77;;;4.77;;
20844;SDS011;10583;49.084;8.646;2023-04-15T08:43:21;4.17;;;4.17;;
20844;SDS011;10583;49.084;8.646;2023-04-15T08:45:51;4.17;;;4.17;;
20844;SDS011;10583;49.084;8.646;2023-04-15T08:48:18;4.70;;;4.70;;
20844;SDS011;10583;49.084;8.646;2023-04-15T08:50:45;4.70;;;4.70;;
20844;SDS011;10583;49.084;8.646;2023-04-15T08:53:14;5.47;;;5.47;;
20844;SDS011;10583;49.084;8.646;2023-04-15T08:55:41;5.13;;;5.13;;
20844;SDS011;10583;49.084;8.646;2023-04-15T08:58:09;4.80;;;4.80;;
20844;SDS011;10583;49.084;8.646;2023-04-15T09:00:37;5.60;;;5.60;;
20844;SDS011;10583;49.084;8.646;2023-04-15T09:03:04;6.00;;;6.00;;
20844;SDS011;10583;49.084;8.646;2023-04-15T09:05:32;5.67;;;5.67;;
20844;SDS011;10583;49.084;8.646;2023-04-15T09:07:59;6.00;;;6.00;;
20844;SDS011;10583;49.084;8.646;2023-04-15T09:10:28;6.20;;;6.20;;
20844;SDS011;10583;49.084;8.646;2023-04-15T09:12:55;6.10;;;6.10;;
20844;SDS011;10583;49.084;8.646;2023-04-15T09:15:22;5.83;;;5.83;;
20844;SDS011;10583;49.084;8.646;2023-04-15T09:17:51;5.93;;;5.93;;
20844;SDS011;10583;49.084;8.646;2023-04-15T09:20:18;5.17;;;5.17;;
20844;SDS011;10583;49.084;8.646;2023-04-15T09:22:46;5.30;;;5.30;;
20844;SDS011;10583;49.084;8.646;2023-04-15T09:25:28;5.13;;;5.13;;
20844;SDS011;10583;49.084;8.646;2023-04-15T09:27:55;4.43;;;4.43;;
20844;SDS011;10583;49.084;8.646;2023-04-15T09:30:23;4.47;;;4.47;;
20844;SDS011;10583;49.084;8.646;2023-04-15T09:32:50;5.27;;;5.27;;
20844;SDS011;10583;49.084;8.646;2023-04-15T09:35:18;4.03;;;4.03;;
20844;SDS011;10583;49.084;8.646;2023-04-15T09:37:45;4.47;;;4.47;;
20844;SDS011;10583;49.084;8.646;2023-04-15T09:40:12;4.07;;;4.07;;
20844;SDS011;10583;49.084;8.646;2023-04-15T09:42:54;4.53;;;4.53;;
20844;SDS011;10583;49.084;8.646;2023-04-15T09:45:22;4.67;;;4.67;;
20844;SDS011;10583;49.084;8.646;2023-04-15T09:47:49;4.73;;;4.73;;
20844;SDS011;10583;49.084;8.646;2023-04-15T09:50:17;5.60;;;5.60;;
20844;SDS011;10583;49.084;8.646;2023-04-15T09:52:44;4.80;;;4.80;;
20844;SDS011;10583;49.084;8.646;2023-04-15T09:55:11;5.43;;;5.43;;
20844;SDS011;10583;49.084;8.646;2023-04-15T09:57:39;5.00;;;5.00;;
20844;SDS011;10583;49.084;8.646;2023-04-15T10:00:10;4.87;;;4.87;;
20844;SDS011;10583;49.084;8.646;2023-04-15T10:02:37;4.70;;;4.70;;
20844;SDS011;10583;49.084;8.646;2023-04-15T10:05:06;4.67;;;4.67;;
20844;SDS011;10583;49.084;8.646;2023-04-15T10:07:35;4.30;;;4.30;;
20844;SDS011;10583;49.084;8.646;2023-04-15T10:10:03;4.73;;;4.73;;
20844;SDS011;10583;49.084;8.646;2023-04-15T10:12:31;4.47;;;4.47;;
20844;SDS011;10583;49.084;8.646;2023-04-15T10:15:00;4.40;;;4.40;;
20844;SDS011;10583;49.084;8.646;2023-04-15T10:17:31;4.63;;;4.63;;
20844;SDS011;10583;49.084;8.646;2023-04-15T10:19:59;4.47;;;4.47;;
20844;SDS011;10583;49.084;8.646;2023-04-15T10:22:27;4.50;;;4.50;;
20844;SDS011;10583;49.084;8.646;2023-04-15T10:24:54;4.30;;;4.30;;
20844;SDS011;10583;49.084;8.646;2023-04-15T10:27:21;5.60;;;5.60;;
20844;SDS011;10583;49.084;8.646;2023-04-15T10:29:49;5.50;;;5.50;;
20844;SDS011;10583;49.084;8.646;2023-04-15T10:32:16;5.20;;;5.20;;
20844;SDS011;10583;49.084;8.646;2023-04-15T10:34:46;4.80;;;4.80;;
20844;SDS011;10583;49.084;8.646;2023-04-15T10:37:19;4.60;;;4.60;;
20844;SDS011;10583;49.084;8.646;2023-04-15T10:39:46;4.80;;;4.80;;
20844;SDS011;10583;49.084;8.646;2023-04-15T10:42:13;4.43;;;4.43;;
20844;SDS011;10583;49.084;8.646;2023-04-15T10:44:41;3.70;;;3.70;;
20844;SDS011;10583;49.084;8.646;2023-04-15T10:47:09;3.60;;;3.60;;
20844;SDS011;10583;49.084;8.646;2023-04-15T10:49:44;4.33;;;4.33;;
20844;SDS011;10583;49.084;8.646;2023-04-15T10:52:14;4.37;;;4.37;;
20844;SDS011;10583;49.084;8.646;2023-04-15T10:54:42;3.87;;;3.87;;
20844;SDS011;10583;49.084;8.646;2023-04-15T10:57:14;5.03;;;5.03;;
20844;SDS011;10583;49.084;8.646;2023-04-15T10:59:59;4.43;;;4.43;;
20844;SDS011;10583;49.084;8.646;2023-04-15T11:02:41;5.00;;;5.00;;
20844;SDS011;10583;49.084;8.646;2023-04-15T11:05:13;5.80;;;5.80;;
20844;SDS011;10583;49.084;8.646;2023-04-15T11:07:48;4.80;;;4.80;;
20844;SDS011;10583;49.084;8.646;2023-04-15T11:13:19;4.60;;;4.60;;
20844;SDS011;10583;49.084;8.646;2023-04-15T11:15:59;4.97;;;4.97;;
20844;SDS011;10583;49.084;8.646;2023-04-15T11:18:30;4.40;;;4.40;;
20844;SDS011;10583;49.084;8.646;2023-04-15T11:21:02;4.13;;;4.13;;
20844;SDS011;10583;49.084;8.646;2023-04-15T11:23:34;3.80;;;3.80;;
20844;SDS011;10583;49.084;8.646;2023-04-15T11:26:03;3.50;;;3.50;;
20844;SDS011;10583;49.084;8.646;2023-04-15T11:28:33;3.80;;;3.80;;
20844;SDS011;10583;49.084;8.646;2023-04-15T11:31:04;4.43;;;4.43;;
20844;SDS011;10583;49.084;8.646;2023-04-15T11:33:36;3.43;;;3.43;;
20844;SDS011;10583;49.084;8.646;2023-04-15T11:36:06;3.73;;;3.73;;
20844;SDS011;10583;49.084;8.646;2023-04-15T11:38:33;3.10;;;3.10;;
20844;SDS011;10583;49.084;8.646;2023-04-15T11:41:01;2.90;;;2.90;;
20844;SDS011;10583;49.084;8.646;2023-04-15T11:43:28;3.43;;;3.43;;
20844;SDS011;10583;49.084;8.646;2023-04-15T11:46:00;3.80;;;3.80;;
20844;SDS011;10583;49.084;8.646;2023-04-15T11:48:28;3.77;;;3.77;;
20844;SDS011;10583;49.084;8.646;2023-04-15T11:50:56;3.70;;;3.70;;
20844;SDS011;10583;49.084;8.646;2023-04-15T11:53:37;3.80;;;3.80;;
20844;SDS011;10583;49.084;8.646;2023-04-15T11:56:06;3.77;;;3.77;;
20844;SDS011;10583;49.084;8.646;2023-04-15T11:58:34;3.93;;;3.93;;
20844;SDS011;10583;49.084;8.646;2023-04-15T12:01:02;4.33;;;4.33;;
20844;SDS011;10583;49.084;8.646;2023-04-15T12:03:30;3.70;;;3.70;;
20844;SDS011;10583;49.084;8.646;2023-04-15T12:06:05;5.40;;;5.40;;
20844;SDS011;10583;49.084;8.646;2023-04-15T12:08:48;4.67;;;4.67;;
20844;SDS011;10583;49.084;8.646;2023-04-15T12:11:34;4.27;;;4.27;;
20844;SDS011;10583;49.084;8.646;2023-04-15T12:14:03;3.97;;;3.97;;
20844;SDS011;10583;49.084;8.646;2023-04-15T12:16:32;4.53;;;4.53;;
20844;SDS011;10583;49.084;8.646;2023-04-15T12:19:01;4.47;;;4.47;;
20844;SDS011;10583;49.084;8.646;2023-04-15T12:21:33;4.40;;;4.40;;
20844;SDS011;10583;49.084;8.646;2023-04-15T12:24:03;4.70;;;4.70;;
20844;SDS011;10583;49.084;8.646;2023-04-15T12:26:32;4.53;;;4.53;;
20844;SDS011;10583;49.084;8.646;2023-04-15T12:29:01;5.53;;;5.53;;
20844;SDS011;10583;49.084;8.646;2023-04-15T12:31:28;4.17;;;4.17;;
20844;SDS011;10583;49.084;8.646;2023-04-15T12:33:55;8.83;;;8.83;;
20844;SDS011;10583;49.084;8.646;2023-04-15T12:36:23;8.90;;;8.90;;
20844;SDS011;10583;49.084;8.646;2023-04-15T12:38:50;5.83;;;5.83;;
20844;SDS011;10583;49.084;8.646;2023-04-15T12:41:18;3.37;;;3.37;;
20844;SDS011;10583;49.084;8.646;2023-04-15T12:43:45;3.33;;;3.33;;
20844;SDS011;10583;49.084;8.646;2023-04-15T12:46:12;2.57;;;2.57;;
20844;SDS011;10583;49.084;8.646;2023-04-15T12:48:39;2.63;;;2.63;;
20844;SDS011;10583;49.084;8.646;2023-04-15T12:51:06;2.60;;;2.60;;
20844;SDS011;10583;49.084;8.646;2023-04-15T12:53:33;2.63;;;2.63;;
20844;SDS011;10583;49.084;8.646;2023-04-15T12:55:59;2.33;;;2.33;;
20844;SDS011;10583;49.084;8.646;2023-04-15T12:58:27;1.80;;;1.80;;
20844;SDS011;10583;49.084;8.646;2023-04-15T13:00:54;2.00;;;2.00;;
20844;SDS011;10583;49.084;8.646;2023-04-15T13:03:21;2.50;;;2.50;;
20844;SDS011;10583;49.084;8.646;2023-04-15T13:05:48;2.13;;;2.13;;
20844;SDS011;10583;49.084;8.646;2023-04-15T13:08:15;2.63;;;2.63;;
20844;SDS011;10583;49.084;8.646;2023-04-15T13:10:41;2.50;;;2.50;;
20844;SDS011;10583;49.084;8.646;2023-04-15T13:13:08;1.90;;;1.90;;
20844;SDS011;10583;49.084;8.646;2023-04-15T13:15:37;2.70;;;2.70;;
20844;SDS011;10583;49.084;8.646;2023-04-15T13:18:05;1.83;;;1.83;;
20844;SDS011;10583;49.084;8.646;2023-04-15T13:20:32;2.70;;;2.70;;
20844;SDS011;10583;49.084;8.646;2023-04-15T13:22:59;2.63;;;2.63;;
20844;SDS011;10583;49.084;8.646;2023-04-15T13:25:27;5.90;;;5.90;;
20844;SDS011;10583;49.084;8.646;2023-04-15T13:27:54;3.93;;;3.93;;
20844;SDS011;10583;49.084;8.646;2023-04-15T13:30:21;7.43;;;7.43;;
20844;SDS011;10583;49.084;8.646;2023-04-15T13:32:49;3.07;;;3.07;;
20844;SDS011;10583;49.084;8.646;2023-04-15T13:35:17;3.10;;;3.10;;
20844;SDS011;10583;49.084;8.646;2023-04-15T13:37:44;2.73;;;2.73;;
20844;SDS011;10583;49.084;8.646;2023-04-15T13:40:12;2.47;;;2.47;;
20844;SDS011;10583;49.084;8.646;2023-04-15T13:42:38;1.93;;;1.93;;
20844;SDS011;10583;49.084;8.646;2023-04-15T13:45:06;2.50;;;2.50;;
20844;SDS011;10583;49.084;8.646;2023-04-15T13:47:33;2.03;;;2.03;;
20844;SDS011;10583;49.084;8.646;2023-04-15T13:50:01;2.20;;;2.20;;
20844;SDS011;10583;49.084;8.646;2023-04-15T13:52:28;2.90;;;2.90;;
20844;SDS011;10583;49.084;8.646;2023-04-15T13:54:55;2.07;;;2.07;;
20844;SDS011;10583;49.084;8.646;2023-04-15T13:57:21;2.23;;;2.23;;
20844;SDS011;10583;49.084;8.646;2023-04-15T13:59:48;3.27;;;3.27;;
20844;SDS011;10583;49.084;8.646;2023-04-15T14:02:15;9.47;;;9.47;;
20844;SDS011;10583;49.084;8.646;2023-04-15T14:04:41;3.50;;;3.50;;
20844;SDS011;10583;49.084;8.646;2023-04-15T14:07:09;3.50;;;3.50;;
20844;SDS011;10583;49.084;8.646;2023-04-15T14:09:36;3.60;;;3.60;;
20844;SDS011;10583;49.084;8.646;2023-04-15T14:12:03;2.83;;;2.83;;
20844;SDS011;10583;49.084;8.646;2023-04-15T14:14:30;3.90;;;3.90;;
20844;SDS011;10583;49.084;8.646;2023-04-15T14:16:57;6.20;;;6.20;;
20844;SDS011;10583;49.084;8.646;2023-04-15T14:19:24;5.00;;;5.00;;
20844;SDS011;10583;49.084;8.646;2023-04-15T14:21:50;3.27;;;3.27;;
20844;SDS011;10583;49.084;8.646;2023-04-15T14:24:18;3.10;;;3.10;;
20844;SDS011;10583;49.084;8.646;2023-04-15T14:26:45;2.30;;;2.30;;
20844;SDS011;10583;49.084;8.646;2023-04-15T14:29:12;1.70;;;1.70;;
20844;SDS011;10583;49.084;8.646;2023-04-15T14:31:38;2.20;;;2.20;;
20844;SDS011;10583;49.084;8.646;2023-04-15T14:34:05;1.77;;;1.77;;
20844;SDS011;10583;49.084;8.646;2023-04-15T14:36:32;1.70;;;1.70;;
20844;SDS011;10583;49.084;8.646;2023-04-15T14:38:58;1.60;;;1.60;;
20844;SDS011;10583;49.084;8.646;2023-04-15T14:41:27;1.43;;;1.43;;
20844;SDS011;10583;49.084;8.646;2023-04-15T14:43:58;1.40;;;1.40;;
20844;SDS011;10583;49.084;8.646;2023-04-15T14:46:25;1.40;;;1.40;;
20844;SDS011;10583;49.084;8.646;2023-04-15T14:48:52;1.00;;;1.00;;
20844;SDS011;10583;49.084;8.646;2023-04-15T14:51:19;1.40;;;1.40;;
20844;SDS011;10583;49.084;8.646;2023-04-15T14:53:45;1.20;;;1.20;;
20844;SDS011;10583;49.084;8.646;2023-04-15T14:56:12;0.70;;;0.70;;